sensor_id;sensor_type;location;lat;lon;timestamp;pressure;altitude;pressure_sealevel;temperature;humidity
26775;BME280;14362;51.902;7.626;2023-01-27T00:03:31;101752.44;;;4.06;100.00
26775;BME280;14362;51.902;7.626;2023-01-27T00:07:33;101754.38;;;4.05;100.00
26775;BME280;14362;51.902;7.626;2023-01-27T00:11:36;101752.38;;;4.01;100.00
26775;BME280;14362;51.902;7.626;2023-01-27T00:15:55;101758.16;;;4.00;100.00
26775;BME280;14362;51.902;7.626;2023-01-27T00:19:56;101770.59;;;4.02;100.00
26775;BME280;14362;51.902;7.626;2023-01-27T00:23:57;101774.53;;;3.90;100.00
26775;BME280;14362;51.902;7.626;2023-01-27T00:28:18;101779.94;;;3.80;100.00
26775;BME280;14362;51.902;7.626;2023-01-27T00:32:24;101778.06;;;3.85;100.00
26775;BME280;14362;51.902;7.626;2023-01-27T00:36:43;101783.91;;;3.67;100.00
26775;BME280;14362;51.902;7.626;2023-01-27T00:40:45;101787.84;;;3.55;100.00
26775;BME280;14362;51.902;7.626;2023-01-27T00:45:08;101791.34;;;3.50;100.00
26775;BME280;14362;51.902;7.626;2023-01-27T00:49:28;101770.31;;;3.44;100.00
26775;BME280;14362;51.902;7.626;2023-01-27T00:53:30;101769.44;;;3.60;100.00
26775;BME280;14362;51.902;7.626;2023-01-27T00:57:31;101778.06;;;3.47;100.00
26775;BME280;14362;51.902;7.626;2023-01-27T01:01:34;101777.56;;;3.50;100.00
26775;BME280;14362;51.902;7.626;2023-01-27T01:05:36;101775.78;;;3.39;100.00
26775;BME280;14362;51.902;7.626;2023-01-27T01:09:38;101783.38;;;3.32;100.00
26775;BME280;14362;51.902;7.626;2023-01-27T01:13:40;101772.06;;;3.34;100.00
26775;BME280;14362;51.902;7.626;2023-01-27T01:17:42;101770.59;;;3.26;100.00
26775;BME280;14362;51.902;7.626;2023-01-27T01:21:44;101779.44;;;3.28;100.00
26775;BME280;14362;51.902;7.626;2023-01-27T01:25:51;101789.09;;;3.31;100.00
26775;BME280;14362;51.902;7.626;2023-01-27T01:29:53;101781.97;;;3.30;100.00
26775;BME280;14362;51.902;7.626;2023-01-27T01:33:56;101790.72;;;3.27;100.00
26775;BME280;14362;51.902;7.626;2023-01-27T01:37:57;101793.38;;;3.22;100.00
26775;BME280;14362;51.902;7.626;2023-01-27T01:41:59;101787.53;;;3.35;100.00
26775;BME280;14362;51.902;7.626;2023-01-27T01:46:01;101800.47;;;3.34;100.00
26775;BME280;14362;51.902;7.626;2023-01-27T01:50:05;101790.47;;;3.28;100.00
26775;BME280;14362;51.902;7.626;2023-01-27T01:54:08;101787.03;;;3.21;100.00
26775;BME280;14362;51.902;7.626;2023-01-27T01:58:10;101787.88;;;3.22;100.00
26775;BME280;14362;51.902;7.626;2023-01-27T02:02:14;101796.41;;;3.20;100.00
26775;BME280;14362;51.902;7.626;2023-01-27T02:06:19;101791.22;;;3.24;100.00
26775;BME280;14362;51.902;7.626;2023-01-27T02:10:20;101794.78;;;3.24;100.00
26775;BME280;14362;51.902;7.626;2023-01-27T02:14:22;101793.66;;;3.20;100.00
26775;BME280;14362;51.902;7.626;2023-01-27T02:18:25;101793.88;;;3.19;100.00
26775;BME280;14362;51.902;7.626;2023-01-27T02:22:34;101794.19;;;3.22;100.00
26775;BME280;14362;51.902;7.626;2023-01-27T02:26:40;101787.28;;;3.20;100.00
26775;BME280;14362;51.902;7.626;2023-01-27T02:30:45;101786.22;;;3.21;100.00
26775;BME280;14362;51.902;7.626;2023-01-27T02:34:47;101777.19;;;3.25;100.00
26775;BME280;14362;51.902;7.626;2023-01-27T02:38:50;101784.53;;;3.36;100.00
26775;BME280;14362;51.902;7.626;2023-01-27T02:42:55;101788.03;;;3.32;100.00
26775;BME280;14362;51.902;7.626;2023-01-27T02:46:57;101792.13;;;3.29;100.00
26775;BME280;14362;51.902;7.626;2023-01-27T02:50:58;101781.44;;;3.33;100.00
26775;BME280;14362;51.902;7.626;2023-01-27T02:55:00;101781.19;;;3.34;100.00
26775;BME280;14362;51.902;7.626;2023-01-27T02:59:03;101786.72;;;3.34;100.00
26775;BME280;14362;51.902;7.626;2023-01-27T03:03:04;101784.19;;;3.33;100.00
26775;BME280;14362;51.902;7.626;2023-01-27T03:07:05;101786.34;;;3.31;100.00
26775;BME280;14362;51.902;7.626;2023-01-27T03:11:07;101787.19;;;3.31;100.00
26775;BME280;14362;51.902;7.626;2023-01-27T03:15:10;101781.69;;;3.31;100.00
26775;BME280;14362;51.902;7.626;2023-01-27T03:19:29;101780.94;;;3.36;100.00
26775;BME280;14362;51.902;7.626;2023-01-27T03:23:31;101785.03;;;3.33;100.00
26775;BME280;14362;51.902;7.626;2023-01-27T03:27:34;101787.78;;;3.33;100.00
26775;BME280;14362;51.902;7.626;2023-01-27T03:31:37;101790.03;;;3.36;100.00
26775;BME280;14362;51.902;7.626;2023-01-27T03:35:38;101780.94;;;3.36;100.00
26775;BME280;14362;51.902;7.626;2023-01-27T03:39:47;101779.53;;;3.33;100.00
26775;BME280;14362;51.902;7.626;2023-01-27T03:44:06;101786.44;;;3.36;100.00
26775;BME280;14362;51.902;7.626;2023-01-27T03:48:27;101785.69;;;3.40;100.00
26775;BME280;14362;51.902;7.626;2023-01-27T03:52:28;101788.19;;;3.42;100.00
26775;BME280;14362;51.902;7.626;2023-01-27T03:56:29;101795.09;;;3.61;100.00
26775;BME280;14362;51.902;7.626;2023-01-27T04:00:31;101791.63;;;3.49;100.00
26775;BME280;14362;51.902;7.626;2023-01-27T04:04:34;101793.25;;;3.50;100.00
26775;BME280;14362;51.902;7.626;2023-01-27T04:08:53;101792.59;;;3.59;100.00
26775;BME280;14362;51.902;7.626;2023-01-27T04:12:54;101798.53;;;3.68;100.00
26775;BME280;14362;51.902;7.626;2023-01-27T04:16:57;101796.50;;;3.63;100.00
26775;BME280;14362;51.902;7.626;2023-01-27T04:21:00;101789.66;;;3.66;100.00
26775;BME280;14362;51.902;7.626;2023-01-27T04:25:02;101804.88;;;3.68;100.00
26775;BME280;14362;51.902;7.626;2023-01-27T04:29:03;101791.06;;;3.68;100.00
26775;BME280;14362;51.902;7.626;2023-01-27T04:33:06;101800.94;;;3.64;100.00
26775;BME280;14362;51.902;7.626;2023-01-27T04:37:10;101798.25;;;3.69;100.00
26775;BME280;14362;51.902;7.626;2023-01-27T04:41:12;101800.53;;;3.72;100.00
26775;BME280;14362;51.902;7.626;2023-01-27T04:45:13;101801.34;;;3.73;100.00
26775;BME280;14362;51.902;7.626;2023-01-27T04:49:15;101813.13;;;3.85;100.00
26775;BME280;14362;51.902;7.626;2023-01-27T04:53:18;101810.28;;;3.80;100.00
26775;BME280;14362;51.902;7.626;2023-01-27T04:57:20;101807.88;;;3.67;100.00
26775;BME280;14362;51.902;7.626;2023-01-27T05:01:21;101822.00;;;3.54;100.00
26775;BME280;14362;51.902;7.626;2023-01-27T05:05:23;101827.91;;;3.62;100.00
26775;BME280;14362;51.902;7.626;2023-01-27T05:09:25;101823.06;;;3.69;100.00
26775;BME280;14362;51.902;7.626;2023-01-27T05:13:27;101832.25;;;3.75;100.00
26775;BME280;14362;51.902;7.626;2023-01-27T05:17:30;101841.88;;;3.72;100.00
26775;BME280;14362;51.902;7.626;2023-01-27T05:21:31;101836.34;;;3.72;100.00
26775;BME280;14362;51.902;7.626;2023-01-27T05:25:34;101831.25;;;3.81;100.00
26775;BME280;14362;51.902;7.626;2023-01-27T05:29:35;101829.81;;;3.78;100.00
26775;BME280;14362;51.902;7.626;2023-01-27T05:33:37;101829.81;;;3.78;100.00
26775;BME280;14362;51.902;7.626;2023-01-27T05:37:38;101835.31;;;3.78;100.00
26775;BME280;14362;51.902;7.626;2023-01-27T05:41:41;101837.75;;;3.75;100.00
26775;BME280;14362;51.902;7.626;2023-01-27T05:45:43;101841.28;;;3.70;100.00
26775;BME280;14362;51.902;7.626;2023-01-27T05:49:45;101842.97;;;3.71;100.00
26775;BME280;14362;51.902;7.626;2023-01-27T05:53:47;101849.78;;;3.85;100.00
26775;BME280;14362;51.902;7.626;2023-01-27T05:57:50;101851.13;;;3.83;100.00
26775;BME280;14362;51.902;7.626;2023-01-27T06:01:51;101853.81;;;3.78;100.00
26775;BME280;14362;51.902;7.626;2023-01-27T06:05:54;101856.06;;;3.81;100.00
26775;BME280;14362;51.902;7.626;2023-01-27T06:09:56;101856.19;;;4.07;100.00
26775;BME280;14362;51.902;7.626;2023-01-27T06:13:59;101861.72;;;3.91;100.00
26775;BME280;14362;51.902;7.626;2023-01-27T06:18:00;101861.19;;;4.10;100.00
26775;BME280;14362;51.902;7.626;2023-01-27T06:22:02;101866.50;;;3.95;100.00
26775;BME280;14362;51.902;7.626;2023-01-27T06:26:05;101863.97;;;3.94;100.00
26775;BME280;14362;51.902;7.626;2023-01-27T06:30:10;101860.63;;;3.92;100.00
26775;BME280;14362;51.902;7.626;2023-01-27T06:34:12;101867.13;;;4.02;100.00
26775;BME280;14362;51.902;7.626;2023-01-27T06:38:13;101871.25;;;4.00;100.00
26775;BME280;14362;51.902;7.626;2023-01-27T06:42:15;101870.47;;;4.04;100.00
26775;BME280;14362;51.902;7.626;2023-01-27T06:46:17;101873.81;;;4.06;100.00
26775;BME280;14362;51.902;7.626;2023-01-27T06:50:19;101873.53;;;4.07;100.00
26775;BME280;14362;51.902;7.626;2023-01-27T06:54:20;101871.13;;;4.11;100.00
26775;BME280;14362;51.902;7.626;2023-01-27T06:58:22;101875.47;;;4.07;100.00
26775;BME280;14362;51.902;7.626;2023-01-27T07:02:24;101885.94;;;4.05;100.00
26775;BME280;14362;51.902;7.626;2023-01-27T07:06:26;101892.22;;;4.01;100.00
26775;BME280;14362;51.902;7.626;2023-01-27T07:10:27;101891.06;;;4.18;100.00
26775;BME280;14362;51.902;7.626;2023-01-27T07:14:29;101900.53;;;4.22;100.00
26775;BME280;14362;51.902;7.626;2023-01-27T07:18:31;101903.66;;;4.09;100.00
26775;BME280;14362;51.902;7.626;2023-01-27T07:22:33;101913.16;;;4.18;100.00
26775;BME280;14362;51.902;7.626;2023-01-27T07:26:34;101913.16;;;4.18;100.00
26775;BME280;14362;51.902;7.626;2023-01-27T07:30:36;101918.56;;;4.29;100.00
26775;BME280;14362;51.902;7.626;2023-01-27T07:34:39;101920.63;;;4.17;100.00
26775;BME280;14362;51.902;7.626;2023-01-27T07:38:41;101920.94;;;4.21;100.00
26775;BME280;14362;51.902;7.626;2023-01-27T07:42:42;101924.13;;;4.13;100.00
26775;BME280;14362;51.902;7.626;2023-01-27T07:46:43;101926.13;;;4.17;100.00
26775;BME280;14362;51.902;7.626;2023-01-27T07:50:46;101925.63;;;4.20;100.00
26775;BME280;14362;51.902;7.626;2023-01-27T07:54:48;101931.97;;;4.21;100.00
26775;BME280;14362;51.902;7.626;2023-01-27T07:58:52;101934.13;;;4.19;100.00
26775;BME280;14362;51.902;7.626;2023-01-27T08:02:55;101939.75;;;4.24;100.00
26775;BME280;14362;51.902;7.626;2023-01-27T08:06:58;101944.34;;;4.18;100.00
26775;BME280;14362;51.902;7.626;2023-01-27T08:11:02;101953.28;;;4.25;100.00
26775;BME280;14362;51.902;7.626;2023-01-27T08:15:04;101952.72;;;4.23;100.00
26775;BME280;14362;51.902;7.626;2023-01-27T08:19:06;101962.81;;;4.18;100.00
26775;BME280;14362;51.902;7.626;2023-01-27T08:23:08;101965.44;;;4.24;100.00
26775;BME280;14362;51.902;7.626;2023-01-27T08:27:10;101954.22;;;4.31;100.00
26775;BME280;14362;51.902;7.626;2023-01-27T08:31:14;101961.31;;;4.27;100.00
26775;BME280;14362;51.902;7.626;2023-01-27T08:35:15;101959.28;;;4.39;100.00
26775;BME280;14362;51.902;7.626;2023-01-27T08:39:18;101954.84;;;4.38;100.00
26775;BME280;14362;51.902;7.626;2023-01-27T08:43:19;101961.81;;;4.40;100.00
26775;BME280;14362;51.902;7.626;2023-01-27T08:47:21;101967.56;;;4.39;100.00
26775;BME280;14362;51.902;7.626;2023-01-27T08:51:22;101968.41;;;4.39;100.00
26775;BME280;14362;51.902;7.626;2023-01-27T08:55:26;101973.59;;;4.36;100.00
26775;BME280;14362;51.902;7.626;2023-01-27T08:59:27;101979.25;;;4.46;100.00
26775;BME280;14362;51.902;7.626;2023-01-27T09:03:29;101989.13;;;4.42;100.00
26775;BME280;14362;51.902;7.626;2023-01-27T09:07:30;101988.16;;;4.31;100.00
26775;BME280;14362;51.902;7.626;2023-01-27T09:11:34;101999.50;;;4.35;100.00
26775;BME280;14362;51.902;7.626;2023-01-27T09:15:36;101991.72;;;4.48;100.00
26775;BME280;14362;51.902;7.626;2023-01-27T09:19:37;102003.66;;;4.54;100.00
26775;BME280;14362;51.902;7.626;2023-01-27T09:23:39;102011.81;;;4.44;100.00
26775;BME280;14362;51.902;7.626;2023-01-27T09:27:41;102003.25;;;4.45;100.00
26775;BME280;14362;51.902;7.626;2023-01-27T09:31:43;102009.72;;;4.51;100.00
26775;BME280;14362;51.902;7.626;2023-01-27T09:35:46;102012.53;;;4.56;100.00
26775;BME280;14362;51.902;7.626;2023-01-27T09:39:50;102013.47;;;4.61;100.00
26775;BME280;14362;51.902;7.626;2023-01-27T09:44:06;102011.50;;;4.62;100.00
26775;BME280;14362;51.902;7.626;2023-01-27T09:48:44;102018.31;;;4.54;100.00
26775;BME280;14362;51.902;7.626;2023-01-27T09:53:07;102011.78;;;4.60;100.00
26775;BME280;14362;51.902;7.626;2023-01-27T09:57:17;102024.06;;;4.69;100.00
26775;BME280;14362;51.902;7.626;2023-01-27T10:01:28;102020.75;;;4.89;100.00
26775;BME280;14362;51.902;7.626;2023-01-27T10:06:10;102020.78;;;4.94;100.00
26775;BME280;14362;51.902;7.626;2023-01-27T10:10:30;102026.19;;;4.84;100.00
26775;BME280;14362;51.902;7.626;2023-01-27T10:14:37;102012.63;;;4.82;100.00
26775;BME280;14362;51.902;7.626;2023-01-27T10:19:00;102022.16;;;4.91;100.00
26775;BME280;14362;51.902;7.626;2023-01-27T10:23:19;102011.66;;;5.14;100.00
26775;BME280;14362;51.902;7.626;2023-01-27T10:27:26;102024.19;;;5.22;100.00
26775;BME280;14362;51.902;7.626;2023-01-27T10:31:33;102022.78;;;5.19;100.00
26775;BME280;14362;51.902;7.626;2023-01-27T10:35:46;102023.31;;;5.16;100.00
26775;BME280;14362;51.902;7.626;2023-01-27T10:39:55;102019.34;;;5.07;100.00
26775;BME280;14362;51.902;7.626;2023-01-27T10:44:10;102033.19;;;5.12;100.00
26775;BME280;14362;51.902;7.626;2023-01-27T10:48:39;102034.56;;;5.10;100.00
26775;BME280;14362;51.902;7.626;2023-01-27T10:52:49;102019.13;;;5.14;100.00
26775;BME280;14362;51.902;7.626;2023-01-27T10:56:55;102033.78;;;5.14;100.00
26775;BME280;14362;51.902;7.626;2023-01-27T11:01:00;102036.34;;;5.21;100.00
26775;BME280;14362;51.902;7.626;2023-01-27T11:05:07;102035.59;;;5.25;100.00
26775;BME280;14362;51.902;7.626;2023-01-27T11:09:16;102039.63;;;5.39;100.00
26775;BME280;14362;51.902;7.626;2023-01-27T11:13:23;102029.22;;;5.25;100.00
26775;BME280;14362;51.902;7.626;2023-01-27T11:17:30;102022.06;;;5.29;100.00
26775;BME280;14362;51.902;7.626;2023-01-27T11:21:32;102022.28;;;5.22;100.00
26775;BME280;14362;51.902;7.626;2023-01-27T11:25:45;102023.47;;;5.31;100.00
26775;BME280;14362;51.902;7.626;2023-01-27T11:29:53;102024.44;;;5.42;100.00
26775;BME280;14362;51.902;7.626;2023-01-27T11:34:00;102022.19;;;5.39;100.00
26775;BME280;14362;51.902;7.626;2023-01-27T11:38:04;102029.34;;;5.35;100.00
26775;BME280;14362;51.902;7.626;2023-01-27T11:42:08;102025.22;;;5.37;100.00
26775;BME280;14362;51.902;7.626;2023-01-27T11:46:15;102025.00;;;5.44;100.00
26775;BME280;14362;51.902;7.626;2023-01-27T11:50:19;102012.31;;;5.21;100.00
26775;BME280;14362;51.902;7.626;2023-01-27T11:54:26;102017.34;;;5.24;100.00
26775;BME280;14362;51.902;7.626;2023-01-27T11:58:34;102024.00;;;5.28;100.00
26775;BME280;14362;51.902;7.626;2023-01-27T12:02:40;102013.84;;;5.12;100.00
26775;BME280;14362;51.902;7.626;2023-01-27T12:06:46;102016.16;;;5.20;100.00
26775;BME280;14362;51.902;7.626;2023-01-27T12:10:49;102017.19;;;5.14;100.00
26775;BME280;14362;51.902;7.626;2023-01-27T12:14:53;102019.38;;;5.12;100.00
26775;BME280;14362;51.902;7.626;2023-01-27T12:18:59;102014.13;;;5.11;100.00
26775;BME280;14362;51.902;7.626;2023-01-27T12:23:13;102018.09;;;5.20;100.00
26775;BME280;14362;51.902;7.626;2023-01-27T12:27:19;102009.88;;;5.03;100.00
26775;BME280;14362;51.902;7.626;2023-01-27T12:31:26;102005.97;;;5.00;100.00
26775;BME280;14362;51.902;7.626;2023-01-27T12:35:30;102003.34;;;5.09;100.00
26775;BME280;14362;51.902;7.626;2023-01-27T12:39:41;102004.97;;;5.10;100.00
26775;BME280;14362;51.902;7.626;2023-01-27T12:43:49;101992.59;;;5.13;100.00
26775;BME280;14362;51.902;7.626;2023-01-27T12:48:09;101999.28;;;5.17;100.00
26775;BME280;14362;51.902;7.626;2023-01-27T12:52:18;101996.69;;;5.32;100.00
26775;BME280;14362;51.902;7.626;2023-01-27T12:56:21;101983.25;;;5.19;100.00
26775;BME280;14362;51.902;7.626;2023-01-27T13:00:24;101989.34;;;5.21;100.00
26775;BME280;14362;51.902;7.626;2023-01-27T13:04:27;101989.69;;;5.24;100.00
26775;BME280;14362;51.902;7.626;2023-01-27T13:08:32;101989.31;;;5.16;100.00
26775;BME280;14362;51.902;7.626;2023-01-27T13:12:45;101994.00;;;5.15;100.00
26775;BME280;14362;51.902;7.626;2023-01-27T13:16:52;101993.53;;;5.23;100.00
26775;BME280;14362;51.902;7.626;2023-01-27T13:20:58;102002.47;;;5.30;100.00
26775;BME280;14362;51.902;7.626;2023-01-27T13:25:04;101998.66;;;5.36;100.00
26775;BME280;14362;51.902;7.626;2023-01-27T13:29:13;101998.38;;;5.38;100.00
26775;BME280;14362;51.902;7.626;2023-01-27T13:33:30;101993.53;;;5.23;100.00
26775;BME280;14362;51.902;7.626;2023-01-27T13:37:39;102002.22;;;5.32;100.00
26775;BME280;14362;51.902;7.626;2023-01-27T13:41:46;102009.88;;;5.25;100.00
26775;BME280;14362;51.902;7.626;2023-01-27T13:45:53;102011.53;;;5.26;100.00
26775;BME280;14362;51.902;7.626;2023-01-27T13:49:59;102019.00;;;5.25;100.00
26775;BME280;14362;51.902;7.626;2023-01-27T13:54:04;102017.28;;;5.46;100.00
26775;BME280;14362;51.902;7.626;2023-01-27T13:58:11;102019.84;;;5.52;100.00
26775;BME280;14362;51.902;7.626;2023-01-27T14:02:44;102019.78;;;5.47;100.00
26775;BME280;14362;51.902;7.626;2023-01-27T14:06:57;102010.25;;;5.33;100.00
26775;BME280;14362;51.902;7.626;2023-01-27T14:11:10;102020.72;;;5.31;100.00
26775;BME280;14362;51.902;7.626;2023-01-27T14:15:24;102017.75;;;5.38;100.00
26775;BME280;14362;51.902;7.626;2023-01-27T14:19:32;102028.41;;;5.51;100.00
26775;BME280;14362;51.902;7.626;2023-01-27T14:23:41;102016.28;;;5.30;100.00
26775;BME280;14362;51.902;7.626;2023-01-27T14:27:51;102016.66;;;5.39;100.00
26775;BME280;14362;51.902;7.626;2023-01-27T14:32:02;102022.56;;;5.47;100.00
26775;BME280;14362;51.902;7.626;2023-01-27T14:36:15;102022.06;;;5.29;100.00
26775;BME280;14362;51.902;7.626;2023-01-27T14:40:22;102029.34;;;5.35;100.00
26775;BME280;14362;51.902;7.626;2023-01-27T14:44:30;102030.75;;;5.37;100.00
26775;BME280;14362;51.902;7.626;2023-01-27T14:48:55;102029.28;;;5.30;100.00
26775;BME280;14362;51.902;7.626;2023-01-27T14:53:15;102036.81;;;5.13;100.00
26775;BME280;14362;51.902;7.626;2023-01-27T14:57:25;102042.28;;;5.08;100.00
26775;BME280;14362;51.902;7.626;2023-01-27T15:01:37;102046.38;;;5.05;100.00
26775;BME280;14362;51.902;7.626;2023-01-27T15:05:47;102045.50;;;5.00;100.00
26775;BME280;14362;51.902;7.626;2023-01-27T15:10:07;102043.25;;;4.97;100.00
26775;BME280;14362;51.902;7.626;2023-01-27T15:14:28;102048.09;;;4.90;100.00
26775;BME280;14362;51.902;7.626;2023-01-27T15:18:50;102057.16;;;4.86;100.00
26775;BME280;14362;51.902;7.626;2023-01-27T15:23:08;102072.94;;;5.06;100.00
26775;BME280;14362;51.902;7.626;2023-01-27T15:27:16;102069.88;;;4.87;100.00
26775;BME280;14362;51.902;7.626;2023-01-27T15:31:23;102071.56;;;4.88;100.00
26775;BME280;14362;51.902;7.626;2023-01-27T15:35:32;102071.47;;;4.83;100.00
26775;BME280;14362;51.902;7.626;2023-01-27T15:39:52;102076.03;;;4.72;100.00
26775;BME280;14362;51.902;7.626;2023-01-27T15:44:13;102083.91;;;4.64;100.00
26775;BME280;14362;51.902;7.626;2023-01-27T15:48:18;102089.50;;;4.69;100.00
26775;BME280;14362;51.902;7.626;2023-01-27T15:52:28;102086.66;;;4.64;100.00
26775;BME280;14362;51.902;7.626;2023-01-27T15:56:48;102094.84;;;4.59;100.00
26775;BME280;14362;51.902;7.626;2023-01-27T16:00:51;102097.47;;;4.49;100.00
26775;BME280;14362;51.902;7.626;2023-01-27T16:04:55;102104.00;;;4.43;100.00
26775;BME280;14362;51.902;7.626;2023-01-27T16:09:06;102104.16;;;4.53;100.00
26775;BME280;14362;51.902;7.626;2023-01-27T16:13:11;102100.97;;;4.44;100.00
26775;BME280;14362;51.902;7.626;2023-01-27T16:17:17;102097.88;;;4.41;100.00
26775;BME280;14362;51.902;7.626;2023-01-27T16:21:32;102106.16;;;4.41;100.00
26775;BME280;14362;51.902;7.626;2023-01-27T16:25:43;102115.03;;;4.43;100.00
26775;BME280;14362;51.902;7.626;2023-01-27T16:29:47;102120.41;;;4.33;100.00
26775;BME280;14362;51.902;7.626;2023-01-27T16:33:52;102124.25;;;4.32;100.00
26775;BME280;14362;51.902;7.626;2023-01-27T16:38:02;102128.69;;;4.33;100.00
26775;BME280;14362;51.902;7.626;2023-01-27T16:42:12;102129.22;;;4.35;100.00
26775;BME280;14362;51.902;7.626;2023-01-27T16:46:24;102128.91;;;4.31;100.00
26775;BME280;14362;51.902;7.626;2023-01-27T16:50:31;102128.00;;;4.26;100.00
26775;BME280;14362;51.902;7.626;2023-01-27T16:54:35;102144.16;;;4.34;100.00
26775;BME280;14362;51.902;7.626;2023-01-27T16:58:39;102137.03;;;4.38;100.00
26775;BME280;14362;51.902;7.626;2023-01-27T17:02:41;102131.91;;;4.46;100.00
26775;BME280;14362;51.902;7.626;2023-01-27T17:06:42;102142.06;;;4.24;100.00
26775;BME280;14362;51.902;7.626;2023-01-27T17:10:47;102132.78;;;4.47;100.00
26775;BME280;14362;51.902;7.626;2023-01-27T17:14:52;102141.72;;;4.54;100.00
26775;BME280;14362;51.902;7.626;2023-01-27T17:18:55;102144.22;;;4.22;100.00
26775;BME280;14362;51.902;7.626;2023-01-27T17:22:58;102147.41;;;4.31;100.00
26775;BME280;14362;51.902;7.626;2023-01-27T17:27:03;102146.72;;;4.24;100.00
26775;BME280;14362;51.902;7.626;2023-01-27T17:31:07;102145.78;;;4.18;100.00
26775;BME280;14362;51.902;7.626;2023-01-27T17:35:19;102151.06;;;4.20;100.00
26775;BME280;14362;51.902;7.626;2023-01-27T17:39:24;102155.31;;;4.11;100.00
26775;BME280;14362;51.902;7.626;2023-01-27T17:43:28;102149.88;;;4.16;100.00
26775;BME280;14362;51.902;7.626;2023-01-27T17:47:32;102149.63;;;4.17;100.00
26775;BME280;14362;51.902;7.626;2023-01-27T17:51:38;102163.75;;;4.21;100.00
26775;BME280;14362;51.902;7.626;2023-01-27T17:55:40;102162.94;;;4.20;100.00
26775;BME280;14362;51.902;7.626;2023-01-27T17:59:44;102169.94;;;4.11;100.00
26775;BME280;14362;51.902;7.626;2023-01-27T18:03:51;102171.44;;;4.19;100.00
26775;BME280;14362;51.902;7.626;2023-01-27T18:07:54;102175.88;;;4.20;100.00
26775;BME280;14362;51.902;7.626;2023-01-27T18:11:57;102171.88;;;4.27;100.00
26775;BME280;14362;51.902;7.626;2023-01-27T18:16:00;102167.00;;;4.18;100.00
26775;BME280;14362;51.902;7.626;2023-01-27T18:20:04;102175.44;;;4.11;100.00
26775;BME280;14362;51.902;7.626;2023-01-27T18:24:15;102177.03;;;4.07;100.00
26775;BME280;14362;51.902;7.626;2023-01-27T18:28:19;102184.63;;;4.01;100.00
26775;BME280;14362;51.902;7.626;2023-01-27T18:32:21;102178.38;;;4.05;100.00
26775;BME280;14362;51.902;7.626;2023-01-27T18:36:29;102184.31;;;4.13;100.00
26775;BME280;14362;51.902;7.626;2023-01-27T18:40:34;102190.34;;;4.10;100.00
26775;BME280;14362;51.902;7.626;2023-01-27T18:44:36;102193.56;;;4.07;100.00
26775;BME280;14362;51.902;7.626;2023-01-27T18:48:38;102196.78;;;4.16;100.00
26775;BME280;14362;51.902;7.626;2023-01-27T18:52:41;102199.47;;;4.11;100.00
26775;BME280;14362;51.902;7.626;2023-01-27T18:56:43;102208.72;;;4.05;100.00
26775;BME280;14362;51.902;7.626;2023-01-27T19:00:46;102205.63;;;4.02;100.00
26775;BME280;14362;51.902;7.626;2023-01-27T19:04:48;102209.16;;;4.13;100.00
26775;BME280;14362;51.902;7.626;2023-01-27T19:08:50;102217.97;;;3.99;100.00
26775;BME280;14362;51.902;7.626;2023-01-27T19:12:55;102215.13;;;3.94;100.00
26775;BME280;14362;51.902;7.626;2023-01-27T19:16:57;102212.88;;;4.07;100.00
26775;BME280;14362;51.902;7.626;2023-01-27T19:20:59;102218.47;;;3.96;100.00
26775;BME280;14362;51.902;7.626;2023-01-27T19:25:01;102219.91;;;3.99;100.00
26775;BME280;14362;51.902;7.626;2023-01-27T19:29:03;102221.63;;;3.88;100.00
26775;BME280;14362;51.902;7.626;2023-01-27T19:33:14;102229.63;;;3.90;100.00
26775;BME280;14362;51.902;7.626;2023-01-27T19:37:17;102232.50;;;3.95;100.00
26775;BME280;14362;51.902;7.626;2023-01-27T19:41:19;102232.84;;;3.98;100.00
26775;BME280;14362;51.902;7.626;2023-01-27T19:45:26;102236.63;;;3.81;100.00
26775;BME280;14362;51.902;7.626;2023-01-27T19:49:28;102232.16;;;3.91;100.00
26775;BME280;14362;51.902;7.626;2023-01-27T19:53:29;102247.56;;;3.64;100.00
26775;BME280;14362;51.902;7.626;2023-01-27T19:57:32;102243.50;;;3.67;100.00
26775;BME280;14362;51.902;7.626;2023-01-27T20:01:34;102248.63;;;3.75;100.00
26775;BME280;14362;51.902;7.626;2023-01-27T20:05:36;102241.31;;;3.69;100.00
26775;BME280;14362;51.902;7.626;2023-01-27T20:09:37;102247.19;;;3.72;100.00
26775;BME280;14362;51.902;7.626;2023-01-27T20:13:40;102260.88;;;3.67;100.00
26775;BME280;14362;51.902;7.626;2023-01-27T20:17:41;102258.84;;;3.51;100.00
26775;BME280;14362;51.902;7.626;2023-01-27T20:21:44;102262.56;;;3.57;100.00
26775;BME280;14362;51.902;7.626;2023-01-27T20:25:46;102261.00;;;3.61;100.00
26775;BME280;14362;51.902;7.626;2023-01-27T20:29:48;102268.94;;;3.46;100.00
26775;BME280;14362;51.902;7.626;2023-01-27T20:33:50;102272.50;;;3.46;100.00
26775;BME280;14362;51.902;7.626;2023-01-27T20:37:52;102280.69;;;3.30;100.00
26775;BME280;14362;51.902;7.626;2023-01-27T20:41:54;102277.81;;;3.25;100.00
26775;BME280;14362;51.902;7.626;2023-01-27T20:46:00;102267.72;;;3.30;100.00
26775;BME280;14362;51.902;7.626;2023-01-27T20:50:02;102257.78;;;3.29;100.00
26775;BME280;14362;51.902;7.626;2023-01-27T20:54:05;102272.03;;;3.38;100.00
26775;BME280;14362;51.902;7.626;2023-01-27T20:58:07;102276.00;;;3.19;100.00
26775;BME280;14362;51.902;7.626;2023-01-27T21:02:10;102276.81;;;2.97;100.00
26775;BME280;14362;51.902;7.626;2023-01-27T21:06:12;102288.53;;;3.03;100.00
26775;BME280;14362;51.902;7.626;2023-01-27T21:10:17;102287.47;;;3.04;100.00
26775;BME280;14362;51.902;7.626;2023-01-27T21:14:19;102285.22;;;3.02;100.00
26775;BME280;14362;51.902;7.626;2023-01-27T21:18:22;102281.38;;;2.91;100.00
26775;BME280;14362;51.902;7.626;2023-01-27T21:22:24;102285.53;;;2.82;100.00
26775;BME280;14362;51.902;7.626;2023-01-27T21:26:26;102288.63;;;2.86;100.00